sensor_id;sensor_type;location;lat;lon;timestamp;P1;durP1;ratioP1;P2;durP2;ratioP2
76268;SDS011;65088;52.352;4.846;2022-12-10T00:02:11;65.57;;;20.52;;
76268;SDS011;65088;52.352;4.846;2022-12-10T00:04:40;70.07;;;20.52;;
76268;SDS011;65088;52.352;4.846;2022-12-10T00:07:12;74.18;;;22.88;;
76268;SDS011;65088;52.352;4.846;2022-12-10T00:09:41;66.95;;;20.08;;
76268;SDS011;65088;52.352;4.846;2022-12-10T00:12:11;70.55;;;21.52;;
76268;SDS011;65088;52.352;4.846;2022-12-10T00:14:40;65.25;;;20.88;;
76268;SDS011;65088;52.352;4.846;2022-12-10T00:17:09;68.15;;;21.77;;
76268;SDS011;65088;52.352;4.846;2022-12-10T00:19:38;83.88;;;25.45;;
76268;SDS011;65088;52.352;4.846;2022-12-10T00:22:08;67.65;;;22.33;;
76268;SDS011;65088;52.352;4.846;2022-12-10T00:24:39;68.97;;;21.70;;
76268;SDS011;65088;52.352;4.846;2022-12-10T00:27:09;88.72;;;26.65;;
76268;SDS011;65088;52.352;4.846;2022-12-10T00:29:38;73.47;;;21.02;;
76268;SDS011;65088;52.352;4.846;2022-12-10T00:32:07;79.35;;;21.25;;
76268;SDS011;65088;52.352;4.846;2022-12-10T00:34:37;78.05;;;20.63;;
76268;SDS011;65088;52.352;4.846;2022-12-10T00:37:07;64.90;;;19.10;;
76268;SDS011;65088;52.352;4.846;2022-12-10T00:39:37;70.90;;;16.60;;
76268;SDS011;65088;52.352;4.846;2022-12-10T00:42:11;94.55;;;21.48;;
76268;SDS011;65088;52.352;4.846;2022-12-10T00:44:40;74.78;;;20.10;;
76268;SDS011;65088;52.352;4.846;2022-12-10T00:47:09;75.28;;;21.45;;
76268;SDS011;65088;52.352;4.846;2022-12-10T00:49:39;101.78;;;21.15;;
76268;SDS011;65088;52.352;4.846;2022-12-10T00:52:08;92.03;;;22.10;;
76268;SDS011;65088;52.352;4.846;2022-12-10T00:54:40;68.63;;;19.75;;
76268;SDS011;65088;52.352;4.846;2022-12-10T00:57:09;71.10;;;21.17;;
76268;SDS011;65088;52.352;4.846;2022-12-10T00:59:39;93.75;;;22.67;;
76268;SDS011;65088;52.352;4.846;2022-12-10T01:02:08;75.47;;;21.30;;
76268;SDS011;65088;52.352;4.846;2022-12-10T01:04:37;59.22;;;15.95;;
76268;SDS011;65088;52.352;4.846;2022-12-10T01:07:08;100.45;;;21.10;;
76268;SDS011;65088;52.352;4.846;2022-12-10T01:09:39;125.25;;;21.23;;
76268;SDS011;65088;52.352;4.846;2022-12-10T01:12:09;145.02;;;20.45;;
76268;SDS011;65088;52.352;4.846;2022-12-10T01:14:38;79.38;;;16.10;;
76268;SDS011;65088;52.352;4.846;2022-12-10T01:17:08;86.15;;;18.27;;
76268;SDS011;65088;52.352;4.846;2022-12-10T01:19:38;136.20;;;20.50;;
76268;SDS011;65088;52.352;4.846;2022-12-10T01:22:07;102.20;;;18.70;;
76268;SDS011;65088;52.352;4.846;2022-12-10T01:24:36;80.32;;;17.23;;
76268;SDS011;65088;52.352;4.846;2022-12-10T01:27:08;98.03;;;19.55;;
76268;SDS011;65088;52.352;4.846;2022-12-10T01:29:37;139.95;;;22.35;;
76268;SDS011;65088;52.352;4.846;2022-12-10T01:32:07;139.60;;;22.67;;
76268;SDS011;65088;52.352;4.846;2022-12-10T01:34:38;113.13;;;20.67;;
76268;SDS011;65088;52.352;4.846;2022-12-10T01:37:07;194.55;;;27.17;;
76268;SDS011;65088;52.352;4.846;2022-12-10T01:39:37;173.05;;;21.55;;
76268;SDS011;65088;52.352;4.846;2022-12-10T01:42:12;133.23;;;20.77;;
76268;SDS011;65088;52.352;4.846;2022-12-10T01:45:03;162.40;;;22.67;;
76268;SDS011;65088;52.352;4.846;2022-12-10T01:50:08;150.98;;;22.05;;
76268;SDS011;65088;52.352;4.846;2022-12-10T01:52:37;134.95;;;20.67;;
76268;SDS011;65088;52.352;4.846;2022-12-10T01:55:42;137.13;;;23.00;;
76268;SDS011;65088;52.352;4.846;2022-12-10T01:58:16;121.53;;;20.50;;
76268;SDS011;65088;52.352;4.846;2022-12-10T02:00:50;143.73;;;19.65;;
76268;SDS011;65088;52.352;4.846;2022-12-10T02:03:28;116.07;;;20.02;;
76268;SDS011;65088;52.352;4.846;2022-12-10T02:06:05;128.20;;;20.55;;
76268;SDS011;65088;52.352;4.846;2022-12-10T02:08:43;157.98;;;21.20;;
76268;SDS011;65088;52.352;4.846;2022-12-10T02:11:19;110.05;;;20.52;;
76268;SDS011;65088;52.352;4.846;2022-12-10T02:14:00;75.95;;;18.95;;
76268;SDS011;65088;52.352;4.846;2022-12-10T02:16:33;82.38;;;20.27;;
76268;SDS011;65088;52.352;4.846;2022-12-10T02:19:07;78.55;;;21.67;;
76268;SDS011;65088;52.352;4.846;2022-12-10T02:21:49;84.05;;;22.83;;
76268;SDS011;65088;52.352;4.846;2022-12-10T02:24:23;105.75;;;24.05;;
76268;SDS011;65088;52.352;4.846;2022-12-10T02:26:58;100.57;;;22.58;;
76268;SDS011;65088;52.352;4.846;2022-12-10T02:29:38;99.75;;;24.55;;
76268;SDS011;65088;52.352;4.846;2022-12-10T02:32:08;109.18;;;26.52;;
76268;SDS011;65088;52.352;4.846;2022-12-10T02:34:42;92.82;;;22.42;;
76268;SDS011;65088;52.352;4.846;2022-12-10T02:37:18;98.10;;;21.98;;
76268;SDS011;65088;52.352;4.846;2022-12-10T02:39:55;86.68;;;23.00;;
76268;SDS011;65088;52.352;4.846;2022-12-10T02:42:34;104.28;;;26.23;;
76268;SDS011;65088;52.352;4.846;2022-12-10T02:45:09;92.35;;;22.10;;
76268;SDS011;65088;52.352;4.846;2022-12-10T02:47:40;104.85;;;27.23;;
76268;SDS011;65088;52.352;4.846;2022-12-10T02:50:13;111.20;;;23.58;;
76268;SDS011;65088;52.352;4.846;2022-12-10T02:52:48;127.53;;;28.60;;
76268;SDS011;65088;52.352;4.846;2022-12-10T02:55:18;108.55;;;22.50;;
76268;SDS011;65088;52.352;4.846;2022-12-10T02:58:06;84.60;;;20.27;;
76268;SDS011;65088;52.352;4.846;2022-12-10T03:00:48;94.88;;;23.77;;
76268;SDS011;65088;52.352;4.846;2022-12-10T03:03:30;90.60;;;23.48;;
76268;SDS011;65088;52.352;4.846;2022-12-10T03:06:07;88.88;;;23.35;;
76268;SDS011;65088;52.352;4.846;2022-12-10T03:08:42;90.35;;;22.25;;
76268;SDS011;65088;52.352;4.846;2022-12-10T03:11:17;100.00;;;25.20;;
76268;SDS011;65088;52.352;4.846;2022-12-10T03:13:50;81.95;;;23.30;;
76268;SDS011;65088;52.352;4.846;2022-12-10T03:16:26;76.47;;;20.95;;
76268;SDS011;65088;52.352;4.846;2022-12-10T03:19:01;90.97;;;23.90;;
76268;SDS011;65088;52.352;4.846;2022-12-10T03:21:34;77.22;;;20.00;;
76268;SDS011;65088;52.352;4.846;2022-12-10T03:24:07;83.30;;;22.67;;
76268;SDS011;65088;52.352;4.846;2022-12-10T03:26:37;92.25;;;24.02;;
76268;SDS011;65088;52.352;4.846;2022-12-10T03:29:09;88.28;;;24.50;;
76268;SDS011;65088;52.352;4.846;2022-12-10T03:31:46;87.45;;;23.15;;
76268;SDS011;65088;52.352;4.846;2022-12-10T03:34:16;83.38;;;23.67;;
76268;SDS011;65088;52.352;4.846;2022-12-10T03:36:46;85.47;;;22.70;;
76268;SDS011;65088;52.352;4.846;2022-12-10T03:39:16;83.05;;;21.50;;
76268;SDS011;65088;52.352;4.846;2022-12-10T03:41:45;85.45;;;23.08;;
76268;SDS011;65088;52.352;4.846;2022-12-10T03:44:20;89.50;;;23.15;;
76268;SDS011;65088;52.352;4.846;2022-12-10T03:46:58;88.07;;;22.25;;
76268;SDS011;65088;52.352;4.846;2022-12-10T03:49:28;117.00;;;23.75;;
76268;SDS011;65088;52.352;4.846;2022-12-10T03:51:57;93.50;;;23.67;;
76268;SDS011;65088;52.352;4.846;2022-12-10T03:54:26;109.35;;;20.90;;
76268;SDS011;65088;52.352;4.846;2022-12-10T03:56:56;98.35;;;22.20;;
76268;SDS011;65088;52.352;4.846;2022-12-10T03:59:25;141.18;;;26.20;;
76268;SDS011;65088;52.352;4.846;2022-12-10T04:01:59;185.55;;;26.27;;
76268;SDS011;65088;52.352;4.846;2022-12-10T04:04:29;89.50;;;19.40;;
76268;SDS011;65088;52.352;4.846;2022-12-10T04:06:58;101.03;;;21.35;;
76268;SDS011;65088;52.352;4.846;2022-12-10T04:09:28;158.20;;;23.02;;
76268;SDS011;65088;52.352;4.846;2022-12-10T04:11:57;163.40;;;25.38;;
76268;SDS011;65088;52.352;4.846;2022-12-10T04:14:28;123.82;;;23.27;;
76268;SDS011;65088;52.352;4.846;2022-12-10T04:17:12;137.50;;;22.00;;
76268;SDS011;65088;52.352;4.846;2022-12-10T04:19:42;152.73;;;23.40;;
76268;SDS011;65088;52.352;4.846;2022-12-10T04:22:11;144.25;;;21.67;;
76268;SDS011;65088;52.352;4.846;2022-12-10T04:24:52;118.38;;;23.20;;
76268;SDS011;65088;52.352;4.846;2022-12-10T04:27:35;248.18;;;27.13;;
76268;SDS011;65088;52.352;4.846;2022-12-10T04:30:07;174.27;;;23.88;;
76268;SDS011;65088;52.352;4.846;2022-12-10T04:32:41;223.80;;;25.55;;
76268;SDS011;65088;52.352;4.846;2022-12-10T04:35:11;123.50;;;20.98;;
76268;SDS011;65088;52.352;4.846;2022-12-10T04:37:40;140.93;;;22.77;;
76268;SDS011;65088;52.352;4.846;2022-12-10T04:40:10;124.53;;;21.38;;
76268;SDS011;65088;52.352;4.846;2022-12-10T04:42:39;119.10;;;20.83;;
76268;SDS011;65088;52.352;4.846;2022-12-10T04:45:09;234.73;;;29.30;;
76268;SDS011;65088;52.352;4.846;2022-12-10T04:47:38;173.98;;;23.17;;
76268;SDS011;65088;52.352;4.846;2022-12-10T04:50:10;85.70;;;15.65;;
76268;SDS011;65088;52.352;4.846;2022-12-10T04:52:40;169.27;;;20.75;;
76268;SDS011;65088;52.352;4.846;2022-12-10T04:55:09;84.03;;;15.95;;
76268;SDS011;65088;52.352;4.846;2022-12-10T04:57:38;164.05;;;23.50;;
76268;SDS011;65088;52.352;4.846;2022-12-10T05:00:08;108.50;;;20.50;;
76268;SDS011;65088;52.352;4.846;2022-12-10T05:02:38;166.27;;;21.17;;
76268;SDS011;65088;52.352;4.846;2022-12-10T05:05:10;88.00;;;16.75;;
76268;SDS011;65088;52.352;4.846;2022-12-10T05:07:40;80.15;;;17.38;;
76268;SDS011;65088;52.352;4.846;2022-12-10T05:10:09;93.00;;;17.70;;
76268;SDS011;65088;52.352;4.846;2022-12-10T05:12:39;84.10;;;16.33;;
76268;SDS011;65088;52.352;4.846;2022-12-10T05:15:09;124.32;;;17.00;;
76268;SDS011;65088;52.352;4.846;2022-12-10T05:17:38;88.85;;;18.05;;
76268;SDS011;65088;52.352;4.846;2022-12-10T05:20:10;111.57;;;18.25;;
76268;SDS011;65088;52.352;4.846;2022-12-10T05:22:40;82.22;;;16.20;;
76268;SDS011;65088;52.352;4.846;2022-12-10T05:25:21;75.97;;;15.95;;
76268;SDS011;65088;52.352;4.846;2022-12-10T05:27:50;71.00;;;16.67;;
76268;SDS011;65088;52.352;4.846;2022-12-10T05:30:20;103.72;;;18.75;;
76268;SDS011;65088;52.352;4.846;2022-12-10T05:32:49;51.25;;;13.13;;
76268;SDS011;65088;52.352;4.846;2022-12-10T05:35:21;62.65;;;13.00;;
76268;SDS011;65088;52.352;4.846;2022-12-10T05:37:50;83.47;;;14.45;;
76268;SDS011;65088;52.352;4.846;2022-12-10T05:40:19;109.95;;;17.13;;
76268;SDS011;65088;52.352;4.846;2022-12-10T05:42:50;125.43;;;18.23;;
76268;SDS011;65088;52.352;4.846;2022-12-10T05:45:19;131.90;;;19.00;;
76268;SDS011;65088;52.352;4.846;2022-12-10T05:47:48;72.43;;;16.45;;
76268;SDS011;65088;52.352;4.846;2022-12-10T05:50:17;77.93;;;16.38;;
76268;SDS011;65088;52.352;4.846;2022-12-10T05:52:49;100.60;;;17.77;;
76268;SDS011;65088;52.352;4.846;2022-12-10T05:55:20;69.70;;;13.43;;
76268;SDS011;65088;52.352;4.846;2022-12-10T05:57:49;79.03;;;16.05;;
76268;SDS011;65088;52.352;4.846;2022-12-10T06:00:19;69.70;;;14.55;;
76268;SDS011;65088;52.352;4.846;2022-12-10T06:02:49;80.95;;;16.23;;
76268;SDS011;65088;52.352;4.846;2022-12-10T06:05:21;147.93;;;18.02;;
76268;SDS011;65088;52.352;4.846;2022-12-10T06:07:51;71.88;;;13.45;;
76268;SDS011;65088;52.352;4.846;2022-12-10T06:10:20;91.85;;;15.63;;
76268;SDS011;65088;52.352;4.846;2022-12-10T06:12:49;89.60;;;13.50;;
76268;SDS011;65088;52.352;4.846;2022-12-10T06:15:18;68.55;;;14.65;;
76268;SDS011;65088;52.352;4.846;2022-12-10T06:17:48;67.47;;;12.63;;
76268;SDS011;65088;52.352;4.846;2022-12-10T06:20:17;65.78;;;13.48;;
76268;SDS011;65088;52.352;4.846;2022-12-10T06:22:50;111.90;;;16.65;;
76268;SDS011;65088;52.352;4.846;2022-12-10T06:25:22;105.80;;;15.10;;
76268;SDS011;65088;52.352;4.846;2022-12-10T06:27:52;110.22;;;16.17;;
76268;SDS011;65088;52.352;4.846;2022-12-10T06:30:21;100.03;;;15.23;;
76268;SDS011;65088;52.352;4.846;2022-12-10T06:32:50;76.30;;;14.52;;
76268;SDS011;65088;52.352;4.846;2022-12-10T06:35:19;82.88;;;15.35;;
76268;SDS011;65088;52.352;4.846;2022-12-10T06:37:51;49.17;;;12.40;;
76268;SDS011;65088;52.352;4.846;2022-12-10T06:40:21;91.93;;;16.98;;
76268;SDS011;65088;52.352;4.846;2022-12-10T06:42:50;39.30;;;9.30;;
76268;SDS011;65088;52.352;4.846;2022-12-10T06:45:19;66.18;;;13.75;;
76268;SDS011;65088;52.352;4.846;2022-12-10T06:47:49;69.85;;;15.02;;
76268;SDS011;65088;52.352;4.846;2022-12-10T06:50:18;63.97;;;13.13;;
76268;SDS011;65088;52.352;4.846;2022-12-10T06:52:49;57.20;;;12.45;;
76268;SDS011;65088;52.352;4.846;2022-12-10T06:55:21;64.22;;;11.70;;
76268;SDS011;65088;52.352;4.846;2022-12-10T06:57:51;60.28;;;12.68;;
76268;SDS011;65088;52.352;4.846;2022-12-10T07:00:20;51.92;;;12.15;;
76268;SDS011;65088;52.352;4.846;2022-12-10T07:02:50;62.30;;;13.75;;
76268;SDS011;65088;52.352;4.846;2022-12-10T07:05:19;63.45;;;14.48;;
76268;SDS011;65088;52.352;4.846;2022-12-10T07:07:48;90.63;;;16.90;;
76268;SDS011;65088;52.352;4.846;2022-12-10T07:10:20;63.90;;;13.80;;
76268;SDS011;65088;52.352;4.846;2022-12-10T07:12:50;66.15;;;12.95;;
76268;SDS011;65088;52.352;4.846;2022-12-10T07:15:19;50.85;;;12.68;;
76268;SDS011;65088;52.352;4.846;2022-12-10T07:17:50;58.25;;;12.68;;
76268;SDS011;65088;52.352;4.846;2022-12-10T07:20:19;71.00;;;13.77;;
76268;SDS011;65088;52.352;4.846;2022-12-10T07:22:49;68.90;;;13.50;;
76268;SDS011;65088;52.352;4.846;2022-12-10T07:25:20;49.40;;;12.98;;
76268;SDS011;65088;52.352;4.846;2022-12-10T07:27:50;44.53;;;12.70;;
76268;SDS011;65088;52.352;4.846;2022-12-10T07:30:19;72.60;;;15.65;;
76268;SDS011;65088;52.352;4.846;2022-12-10T07:32:48;64.13;;;13.68;;
76268;SDS011;65088;52.352;4.846;2022-12-10T07:35:17;57.70;;;13.40;;
76268;SDS011;65088;52.352;4.846;2022-12-10T07:37:47;40.17;;;12.27;;
76268;SDS011;65088;52.352;4.846;2022-12-10T07:40:16;59.28;;;13.63;;
76268;SDS011;65088;52.352;4.846;2022-12-10T07:42:48;52.08;;;13.32;;
76268;SDS011;65088;52.352;4.846;2022-12-10T07:45:17;77.28;;;15.98;;
76268;SDS011;65088;52.352;4.846;2022-12-10T07:47:47;56.42;;;13.38;;
76268;SDS011;65088;52.352;4.846;2022-12-10T07:50:16;50.42;;;12.90;;
76268;SDS011;65088;52.352;4.846;2022-12-10T07:52:45;62.70;;;14.80;;
76268;SDS011;65088;52.352;4.846;2022-12-10T07:55:16;50.42;;;13.80;;
76268;SDS011;65088;52.352;4.846;2022-12-10T07:57:48;55.60;;;13.65;;
76268;SDS011;65088;52.352;4.846;2022-12-10T08:00:18;58.28;;;14.27;;
76268;SDS011;65088;52.352;4.846;2022-12-10T08:02:47;73.25;;;15.45;;
76268;SDS011;65088;52.352;4.846;2022-12-10T08:05:16;90.15;;;17.00;;
76268;SDS011;65088;52.352;4.846;2022-12-10T08:07:45;47.35;;;12.85;;
76268;SDS011;65088;52.352;4.846;2022-12-10T08:10:15;56.08;;;13.88;;
76268;SDS011;65088;52.352;4.846;2022-12-10T08:12:44;64.43;;;14.20;;
76268;SDS011;65088;52.352;4.846;2022-12-10T08:15:16;41.28;;;13.30;;
76268;SDS011;65088;52.352;4.846;2022-12-10T08:17:45;43.58;;;12.60;;
76268;SDS011;65088;52.352;4.846;2022-12-10T08:20:15;52.95;;;14.65;;
76268;SDS011;65088;52.352;4.846;2022-12-10T08:22:44;60.28;;;15.32;;
76268;SDS011;65088;52.352;4.846;2022-12-10T08:25:14;48.50;;;13.35;;
76268;SDS011;65088;52.352;4.846;2022-12-10T08:27:43;63.05;;;14.85;;
76268;SDS011;65088;52.352;4.846;2022-12-10T08:30:19;51.50;;;13.15;;
76268;SDS011;65088;52.352;4.846;2022-12-10T08:32:48;48.17;;;12.93;;
76268;SDS011;65088;52.352;4.846;2022-12-10T08:35:17;47.20;;;13.73;;
76268;SDS011;65088;52.352;4.846;2022-12-10T08:37:46;50.05;;;12.63;;
76268;SDS011;65088;52.352;4.846;2022-12-10T08:40:16;57.38;;;16.02;;
76268;SDS011;65088;52.352;4.846;2022-12-10T08:42:45;49.30;;;13.10;;
76268;SDS011;65088;52.352;4.846;2022-12-10T08:45:15;58.00;;;13.48;;
76268;SDS011;65088;52.352;4.846;2022-12-10T08:47:47;47.65;;;14.32;;
76268;SDS011;65088;52.352;4.846;2022-12-10T08:50:17;70.22;;;16.05;;
76268;SDS011;65088;52.352;4.846;2022-12-10T08:52:46;62.28;;;15.57;;
76268;SDS011;65088;52.352;4.846;2022-12-10T08:55:15;59.17;;;15.05;;
76268;SDS011;65088;52.352;4.846;2022-12-10T08:57:45;50.10;;;13.57;;
76268;SDS011;65088;52.352;4.846;2022-12-10T09:00:14;56.78;;;14.52;;
76268;SDS011;65088;52.352;4.846;2022-12-10T09:02:47;91.22;;;16.77;;
76268;SDS011;65088;52.352;4.846;2022-12-10T09:05:17;50.05;;;15.68;;
76268;SDS011;65088;52.352;4.846;2022-12-10T09:07:46;54.50;;;14.80;;
76268;SDS011;65088;52.352;4.846;2022-12-10T09:10:15;52.38;;;15.50;;
76268;SDS011;65088;52.352;4.846;2022-12-10T09:12:45;77.50;;;17.08;;
76268;SDS011;65088;52.352;4.846;2022-12-10T09:15:14;58.65;;;14.50;;
76268;SDS011;65088;52.352;4.846;2022-12-10T09:17:43;51.10;;;14.00;;
76268;SDS011;65088;52.352;4.846;2022-12-10T09:20:15;66.70;;;15.10;;
76268;SDS011;65088;52.352;4.846;2022-12-10T09:22:45;45.03;;;13.27;;
76268;SDS011;65088;52.352;4.846;2022-12-10T09:25:14;53.85;;;15.15;;
76268;SDS011;65088;52.352;4.846;2022-12-10T09:27:46;60.53;;;15.40;;
76268;SDS011;65088;52.352;4.846;2022-12-10T09:30:18;62.00;;;13.70;;
76268;SDS011;65088;52.352;4.846;2022-12-10T09:32:50;46.97;;;13.55;;
76268;SDS011;65088;52.352;4.846;2022-12-10T09:35:20;61.90;;;14.15;;
76268;SDS011;65088;52.352;4.846;2022-12-10T09:37:49;49.88;;;15.15;;
76268;SDS011;65088;52.352;4.846;2022-12-10T09:40:26;59.67;;;15.07;;
76268;SDS011;65088;52.352;4.846;2022-12-10T09:43:04;73.63;;;15.70;;
76268;SDS011;65088;52.352;4.846;2022-12-10T09:45:42;52.20;;;14.40;;
76268;SDS011;65088;52.352;4.846;2022-12-10T09:48:25;74.70;;;15.93;;
76268;SDS011;65088;52.352;4.846;2022-12-10T09:51:03;46.58;;;14.90;;
76268;SDS011;65088;52.352;4.846;2022-12-10T09:53:39;48.80;;;14.40;;
76268;SDS011;65088;52.352;4.846;2022-12-10T09:58:47;50.92;;;14.85;;
76268;SDS011;65088;52.352;4.846;2022-12-10T10:01:18;61.20;;;13.75;;
76268;SDS011;65088;52.352;4.846;2022-12-10T10:03:54;67.63;;;17.92;;
76268;SDS011;65088;52.352;4.846;2022-12-10T10:06:23;52.72;;;14.40;;
76268;SDS011;65088;52.352;4.846;2022-12-10T10:08:55;47.75;;;14.73;;
76268;SDS011;65088;52.352;4.846;2022-12-10T10:11:31;45.65;;;14.38;;
76268;SDS011;65088;52.352;4.846;2022-12-10T10:14:04;57.88;;;14.98;;
76268;SDS011;65088;52.352;4.846;2022-12-10T10:16:39;65.30;;;16.02;;
76268;SDS011;65088;52.352;4.846;2022-12-10T10:19:17;44.90;;;14.50;;
76268;SDS011;65088;52.352;4.846;2022-12-10T10:21:50;46.03;;;14.38;;
76268;SDS011;65088;52.352;4.846;2022-12-10T10:24:20;73.35;;;15.70;;
76268;SDS011;65088;52.352;4.846;2022-12-10T10:26:53;59.03;;;16.50;;
76268;SDS011;65088;52.352;4.846;2022-12-10T10:29:26;41.95;;;13.68;;
76268;SDS011;65088;52.352;4.846;2022-12-10T10:34:55;39.35;;;13.32;;
76268;SDS011;65088;52.352;4.846;2022-12-10T10:37:26;38.40;;;12.63;;
76268;SDS011;65088;52.352;4.846;2022-12-10T10:39:58;46.45;;;13.73;;
76268;SDS011;65088;52.352;4.846;2022-12-10T10:42:28;47.90;;;13.43;;
76268;SDS011;65088;52.352;4.846;2022-12-10T10:45:05;58.13;;;14.07;;
76268;SDS011;65088;52.352;4.846;2022-12-10T10:48:03;50.88;;;13.85;;
76268;SDS011;65088;52.352;4.846;2022-12-10T10:50:39;57.67;;;14.52;;
76268;SDS011;65088;52.352;4.846;2022-12-10T10:53:20;42.47;;;13.45;;
76268;SDS011;65088;52.352;4.846;2022-12-10T10:55:51;53.50;;;14.23;;
76268;SDS011;65088;52.352;4.846;2022-12-10T10:58:24;62.72;;;15.32;;
76268;SDS011;65088;52.352;4.846;2022-12-10T11:00:54;46.55;;;13.15;;
76268;SDS011;65088;52.352;4.846;2022-12-10T11:03:26;70.25;;;14.80;;
76268;SDS011;65088;52.352;4.846;2022-12-10T11:06:00;45.72;;;12.63;;
76268;SDS011;65088;52.352;4.846;2022-12-10T11:08:33;58.60;;;14.93;;
76268;SDS011;65088;52.352;4.846;2022-12-10T11:11:07;52.78;;;14.05;;
76268;SDS011;65088;52.352;4.846;2022-12-10T11:13:41;62.90;;;15.10;;
76268;SDS011;65088;52.352;4.846;2022-12-10T11:16:11;57.40;;;13.40;;
76268;SDS011;65088;52.352;4.846;2022-12-10T11:18:54;42.67;;;13.55;;
76268;SDS011;65088;52.352;4.846;2022-12-10T11:24:00;50.25;;;13.63;;
76268;SDS011;65088;52.352;4.846;2022-12-10T11:26:42;50.20;;;13.75;;
76268;SDS011;65088;52.352;4.846;2022-12-10T11:29:40;58.63;;;13.05;;
76268;SDS011;65088;52.352;4.846;2022-12-10T11:32:27;55.83;;;14.48;;
76268;SDS011;65088;52.352;4.846;2022-12-10T11:35:20;46.35;;;13.70;;
76268;SDS011;65088;52.352;4.846;2022-12-10T11:38:01;43.45;;;13.13;;
76268;SDS011;65088;52.352;4.846;2022-12-10T11:40:40;45.38;;;12.70;;
76268;SDS011;65088;52.352;4.846;2022-12-10T11:43:19;49.83;;;12.15;;
76268;SDS011;65088;52.352;4.846;2022-12-10T11:46:01;43.95;;;13.85;;
76268;SDS011;65088;52.352;4.846;2022-12-10T11:48:45;41.50;;;12.25;;
76268;SDS011;65088;52.352;4.846;2022-12-10T11:51:26;57.50;;;13.60;;
76268;SDS011;65088;52.352;4.846;2022-12-10T11:54:05;52.95;;;13.02;;
76268;SDS011;65088;52.352;4.846;2022-12-10T11:56:43;45.33;;;13.05;;
76268;SDS011;65088;52.352;4.846;2022-12-10T11:59:15;47.50;;;15.15;;
76268;SDS011;65088;52.352;4.846;2022-12-10T12:01:55;45.42;;;14.65;;
76268;SDS011;65088;52.352;4.846;2022-12-10T12:04:40;44.67;;;14.70;;
76268;SDS011;65088;52.352;4.846;2022-12-10T12:07:22;63.00;;;14.93;;
76268;SDS011;65088;52.352;4.846;2022-12-10T12:13:00;53.22;;;13.63;;
76268;SDS011;65088;52.352;4.846;2022-12-10T12:15:33;45.88;;;13.90;;
76268;SDS011;65088;52.352;4.846;2022-12-10T12:18:11;47.60;;;13.73;;
76268;SDS011;65088;52.352;4.846;2022-12-10T12:20:46;42.42;;;13.85;;
76268;SDS011;65088;52.352;4.846;2022-12-10T12:23:22;45.75;;;14.80;;
76268;SDS011;65088;52.352;4.846;2022-12-10T12:25:58;46.78;;;15.27;;
76268;SDS011;65088;52.352;4.846;2022-12-10T12:28:32;53.03;;;15.60;;
76268;SDS011;65088;52.352;4.846;2022-12-10T12:31:07;50.05;;;17.13;;
76268;SDS011;65088;52.352;4.846;2022-12-10T12:33:42;50.67;;;14.27;;
76268;SDS011;65088;52.352;4.846;2022-12-10T12:36:16;58.53;;;16.25;;
76268;SDS011;65088;52.352;4.846;2022-12-10T12:38:51;47.95;;;14.20;;
76268;SDS011;65088;52.352;4.846;2022-12-10T12:41:29;45.22;;;14.02;;
76268;SDS011;65088;52.352;4.846;2022-12-10T12:44:04;48.28;;;14.75;;
76268;SDS011;65088;52.352;4.846;2022-12-10T12:46:40;53.97;;;15.82;;
76268;SDS011;65088;52.352;4.846;2022-12-10T12:49:14;45.67;;;15.23;;
76268;SDS011;65088;52.352;4.846;2022-12-10T12:51:52;44.03;;;13.30;;
76268;SDS011;65088;52.352;4.846;2022-12-10T12:54:24;52.60;;;14.75;;
76268;SDS011;65088;52.352;4.846;2022-12-10T12:57:06;38.85;;;12.95;;
76268;SDS011;65088;52.352;4.846;2022-12-10T12:59:53;49.92;;;14.00;;
76268;SDS011;65088;52.352;4.846;2022-12-10T13:05:18;56.40;;;15.40;;
76268;SDS011;65088;52.352;4.846;2022-12-10T13:10:58;77.30;;;18.38;;
76268;SDS011;65088;52.352;4.846;2022-12-10T13:16:49;61.72;;;17.48;;
76268;SDS011;65088;52.352;4.846;2022-12-10T13:19:29;57.00;;;16.55;;
76268;SDS011;65088;52.352;4.846;2022-12-10T13:22:03;72.82;;;18.17;;
76268;SDS011;65088;52.352;4.846;2022-12-10T13:24:46;66.88;;;17.83;;
76268;SDS011;65088;52.352;4.846;2022-12-10T13:27:34;55.80;;;15.23;;
76268;SDS011;65088;52.352;4.846;2022-12-10T13:30:29;84.70;;;19.85;;
76268;SDS011;65088;52.352;4.846;2022-12-10T13:35:42;59.65;;;16.00;;
76268;SDS011;65088;52.352;4.846;2022-12-10T13:41:00;55.78;;;16.13;;
76268;SDS011;65088;52.352;4.846;2022-12-10T13:43:51;69.95;;;16.98;;
76268;SDS011;65088;52.352;4.846;2022-12-10T13:49:26;80.90;;;19.10;;
76268;SDS011;65088;52.352;4.846;2022-12-10T13:51:58;72.45;;;18.60;;
76268;SDS011;65088;52.352;4.846;2022-12-10T13:54:40;67.90;;;18.30;;
76268;SDS011;65088;52.352;4.846;2022-12-10T13:57:36;80.75;;;18.42;;
76268;SDS011;65088;52.352;4.846;2022-12-10T14:00:19;71.75;;;18.08;;
76268;SDS011;65088;52.352;4.846;2022-12-10T14:06:04;66.35;;;19.27;;
76268;SDS011;65088;52.352;4.846;2022-12-10T14:08:42;79.05;;;18.35;;
76268;SDS011;65088;52.352;4.846;2022-12-10T14:11:27;68.07;;;18.10;;
76268;SDS011;65088;52.352;4.846;2022-12-10T14:14:00;85.93;;;19.70;;
76268;SDS011;65088;52.352;4.846;2022-12-10T14:16:31;79.88;;;20.33;;
76268;SDS011;65088;52.352;4.846;2022-12-10T14:19:02;72.22;;;18.02;;
76268;SDS011;65088;52.352;4.846;2022-12-10T14:21:38;63.05;;;18.63;;
76268;SDS011;65088;52.352;4.846;2022-12-10T14:26:56;76.68;;;18.23;;
76268;SDS011;65088;52.352;4.846;2022-12-10T14:29:27;60.30;;;16.70;;
76268;SDS011;65088;52.352;4.846;2022-12-10T14:31:56;58.22;;;16.98;;
76268;SDS011;65088;52.352;4.846;2022-12-10T14:34:26;58.08;;;17.70;;
76268;SDS011;65088;52.352;4.846;2022-12-10T14:37:00;70.22;;;18.98;;
76268;SDS011;65088;52.352;4.846;2022-12-10T14:39:32;75.20;;;20.17;;
76268;SDS011;65088;52.352;4.846;2022-12-10T14:42:03;81.43;;;20.98;;
76268;SDS011;65088;52.352;4.846;2022-12-10T14:44:35;75.97;;;19.17;;
76268;SDS011;65088;52.352;4.846;2022-12-10T14:47:12;63.58;;;15.80;;
76268;SDS011;65088;52.352;4.846;2022-12-10T14:49:43;67.10;;;19.58;;
76268;SDS011;65088;52.352;4.846;2022-12-10T14:52:17;75.38;;;17.65;;
76268;SDS011;65088;52.352;4.846;2022-12-10T14:54:48;80.28;;;20.83;;
76268;SDS011;65088;52.352;4.846;2022-12-10T14:57:24;68.10;;;19.63;;
76268;SDS011;65088;52.352;4.846;2022-12-10T14:59:59;75.30;;;18.83;;
76268;SDS011;65088;52.352;4.846;2022-12-10T15:02:33;73.65;;;18.50;;
76268;SDS011;65088;52.352;4.846;2022-12-10T15:05:09;68.50;;;18.52;;
76268;SDS011;65088;52.352;4.846;2022-12-10T15:07:44;66.47;;;17.58;;
76268;SDS011;65088;52.352;4.846;2022-12-10T15:10:22;79.85;;;19.60;;
76268;SDS011;65088;52.352;4.846;2022-12-10T15:12:54;77.60;;;18.02;;
76268;SDS011;65088;52.352;4.846;2022-12-10T15:15:26;62.15;;;18.50;;
76268;SDS011;65088;52.352;4.846;2022-12-10T15:18:00;70.35;;;18.75;;
76268;SDS011;65088;52.352;4.846;2022-12-10T15:20:38;71.32;;;17.85;;
76268;SDS011;65088;52.352;4.846;2022-12-10T15:23:20;91.35;;;19.30;;
76268;SDS011;65088;52.352;4.846;2022-12-10T15:25:57;69.97;;;17.27;;
76268;SDS011;65088;52.352;4.846;2022-12-10T15:28:30;69.82;;;17.77;;
76268;SDS011;65088;52.352;4.846;2022-12-10T15:31:12;81.22;;;19.65;;